createdAt,value
2022-12-09T00:01:12.678Z,-2.05
2022-12-09T00:03:42.828Z,-1.98
2022-12-09T00:06:13.237Z,-1.89
2022-12-09T00:08:41.577Z,-1.85
2022-12-09T00:11:09.747Z,-1.81
2022-12-09T00:13:38.470Z,-1.79
2022-12-09T00:16:07.375Z,-1.83
2022-12-09T00:18:35.940Z,-1.88
2022-12-09T00:21:14.568Z,-1.86
2022-12-09T00:23:42.892Z,-1.81
2022-12-09T00:26:11.367Z,-1.81
2022-12-09T00:28:39.505Z,-1.82
2022-12-09T00:31:09.816Z,-1.81
2022-12-09T00:33:37.850Z,-1.85
2022-12-09T00:36:07.411Z,-1.88
2022-12-09T00:38:36.828Z,-1.96
2022-12-09T00:41:05.684Z,-2.07
2022-12-09T00:43:34.205Z,-2.22
2022-12-09T00:46:02.977Z,-2.26
2022-12-09T00:48:34.296Z,-2.22
2022-12-09T00:51:02.789Z,-2.12
2022-12-09T00:53:31.022Z,-1.96
2022-12-09T00:56:00.441Z,-1.82
2022-12-09T00:58:28.625Z,-1.72
2022-12-09T01:00:56.981Z,-1.61
2022-12-09T01:03:25.392Z,-1.48
2022-12-09T01:05:53.979Z,-1.34
2022-12-09T01:08:22.364Z,-1.30
2022-12-09T01:10:50.483Z,-1.23
2022-12-09T01:13:19.766Z,-1.23
2022-12-09T01:15:47.867Z,-1.16
2022-12-09T01:18:16.373Z,-1.10
2022-12-09T01:20:44.388Z,-1.10
2022-12-09T01:23:12.647Z,-1.13
2022-12-09T01:25:40.709Z,-1.14
2022-12-09T01:28:09.040Z,-1.16
2022-12-09T01:30:38.628Z,-1.17
2022-12-09T01:33:06.926Z,-1.13
2022-12-09T01:35:35.454Z,-1.04
2022-12-09T01:38:03.479Z,-0.99
2022-12-09T01:40:31.626Z,-0.93
2022-12-09T01:42:59.580Z,-0.92
2022-12-09T01:45:43.038Z,-0.89
2022-12-09T01:48:14.186Z,-0.86
2022-12-09T01:50:46.859Z,-0.86
2022-12-09T01:53:16.148Z,-0.85
2022-12-09T01:55:45.132Z,-0.82
2022-12-09T01:58:14.137Z,-0.85
2022-12-09T02:00:44.130Z,-0.85
2022-12-09T02:03:12.722Z,-0.83
2022-12-09T02:05:41.207Z,-0.81
2022-12-09T02:08:13.351Z,-0.78
2022-12-09T02:10:48.823Z,-0.79
2022-12-09T02:13:23.638Z,-0.76
2022-12-09T02:15:55.876Z,-0.79
2022-12-09T02:18:27.949Z,-0.82
2022-12-09T02:20:59.323Z,-0.82
2022-12-09T02:23:31.355Z,-0.81
2022-12-09T02:26:08.141Z,-0.82
2022-12-09T02:28:57.564Z,-0.78
2022-12-09T02:31:40.816Z,-0.76
2022-12-09T02:34:16.000Z,-0.73
2022-12-09T02:36:50.592Z,-0.66
2022-12-09T02:39:19.810Z,-0.65
2022-12-09T02:41:48.998Z,-0.66
2022-12-09T02:44:20.026Z,-0.66
2022-12-09T02:46:48.248Z,-0.68
2022-12-09T02:49:17.742Z,-0.65
2022-12-09T02:51:46.285Z,-0.69
2022-12-09T02:54:15.953Z,-0.66
2022-12-09T02:56:47.355Z,-0.62
2022-12-09T02:59:15.432Z,-0.60
2022-12-09T03:01:50.018Z,-0.55
2022-12-09T03:04:21.895Z,-0.51
2022-12-09T03:06:53.079Z,-0.50
2022-12-09T03:09:23.411Z,-0.48
2022-12-09T03:11:52.039Z,-0.45
2022-12-09T03:14:23.142Z,-0.41
2022-12-09T03:16:54.594Z,-0.38
2022-12-09T03:19:27.262Z,-0.38
2022-12-09T03:21:58.502Z,-0.40
2022-12-09T03:24:29.567Z,-0.44
2022-12-09T03:26:58.685Z,-0.41
2022-12-09T03:29:28.050Z,-0.41
2022-12-09T03:31:57.083Z,-0.41
2022-12-09T03:34:31.330Z,-0.38
2022-12-09T03:37:00.645Z,-0.35
2022-12-09T03:39:33.499Z,-0.33
2022-12-09T03:42:05.043Z,-0.34
2022-12-09T03:44:37.046Z,-0.37
2022-12-09T03:47:06.106Z,-0.34
2022-12-09T03:49:35.784Z,-0.34
2022-12-09T03:52:07.276Z,-0.34
2022-12-09T03:54:40.127Z,-0.33
2022-12-09T03:57:17.013Z,-0.31
2022-12-09T03:59:52.021Z,-0.31
2022-12-09T04:02:20.219Z,-0.33
2022-12-09T04:04:50.379Z,-0.34
2022-12-09T04:07:18.964Z,-0.33
2022-12-09T04:09:47.107Z,-0.33
2022-12-09T04:12:15.229Z,-0.34
2022-12-09T04:14:43.278Z,-0.34
2022-12-09T04:17:12.734Z,-0.27
2022-12-09T04:19:40.959Z,-0.27
2022-12-09T04:22:10.589Z,-0.25
2022-12-09T04:24:38.917Z,-0.23
2022-12-09T04:27:07.022Z,-0.23
2022-12-09T04:29:35.071Z,-0.20
2022-12-09T04:32:03.096Z,-0.21
2022-12-09T04:34:31.452Z,-0.18
2022-12-09T04:36:59.501Z,-0.17
2022-12-09T04:39:29.212Z,-0.17
2022-12-09T04:41:57.491Z,-0.10
2022-12-09T04:44:26.032Z,-0.14
2022-12-09T04:46:54.256Z,-0.13
2022-12-09T04:49:22.307Z,-0.11
2022-12-09T04:51:50.342Z,-0.10
2022-12-09T04:54:18.547Z,-0.11
2022-12-09T04:56:49.535Z,-0.10
2022-12-09T04:59:17.575Z,-0.09
2022-12-09T05:01:45.826Z,-0.07
2022-12-09T05:04:14.209Z,-0.06
2022-12-09T05:06:42.894Z,-0.09
2022-12-09T05:09:13.412Z,-0.13
2022-12-09T05:11:42.145Z,-0.11
2022-12-09T05:14:11.907Z,-0.15
2022-12-09T05:16:40.040Z,-0.17
2022-12-09T05:19:08.500Z,-0.17
2022-12-09T05:21:36.946Z,-0.20
2022-12-09T05:24:06.051Z,-0.17
2022-12-09T05:26:34.498Z,-0.14
2022-12-09T05:29:02.558Z,-0.13
2022-12-09T05:31:31.955Z,-0.14
2022-12-09T05:34:00.631Z,-0.17
2022-12-09T05:36:29.138Z,-0.15
2022-12-09T05:38:57.386Z,-0.15
2022-12-09T05:41:25.982Z,-0.11
2022-12-09T05:43:54.818Z,-0.11
2022-12-09T05:46:23.485Z,-0.10
2022-12-09T05:48:53.213Z,-0.11
2022-12-09T05:51:24.653Z,-0.13
2022-12-09T05:53:53.950Z,-0.09
2022-12-09T05:56:23.457Z,-0.09
2022-12-09T05:58:55.982Z,-0.11
2022-12-09T06:01:25.034Z,-0.10
2022-12-09T06:03:55.483Z,-0.11
2022-12-09T06:06:26.783Z,-0.06
2022-12-09T06:08:56.323Z,0.01
2022-12-09T06:11:24.864Z,0.04
2022-12-09T06:13:53.158Z,0.01
2022-12-09T06:16:23.335Z,0.03
2022-12-09T06:18:51.882Z,0.03
2022-12-09T06:21:22.231Z,0.01
2022-12-09T06:23:51.571Z,0.01
2022-12-09T06:26:21.530Z,0.01
2022-12-09T06:28:50.240Z,0.00
2022-12-09T06:31:18.905Z,0.00
2022-12-09T06:33:56.339Z,-0.02
2022-12-09T06:36:28.095Z,-0.04
2022-12-09T06:38:57.919Z,-0.02
2022-12-09T06:41:26.950Z,0.01
2022-12-09T06:43:57.774Z,0.01
2022-12-09T06:46:27.074Z,0.03
2022-12-09T06:48:56.622Z,0.01
2022-12-09T06:51:26.881Z,-0.03
2022-12-09T06:53:55.364Z,-0.03
2022-12-09T06:56:25.415Z,-0.06
2022-12-09T06:58:54.178Z,-0.07
2022-12-09T07:01:24.237Z,-0.10
2022-12-09T07:03:54.666Z,-0.11
2022-12-09T07:06:28.762Z,-0.11
2022-12-09T07:08:58.293Z,-0.15
2022-12-09T07:11:26.606Z,-0.23
2022-12-09T07:13:54.854Z,-0.21
2022-12-09T07:16:23.813Z,-0.23
2022-12-09T07:18:53.118Z,-0.23
2022-12-09T07:21:22.904Z,-0.25
2022-12-09T07:23:52.620Z,-0.28
2022-12-09T07:26:21.462Z,-0.31
2022-12-09T07:28:50.488Z,-0.35
2022-12-09T07:31:20.762Z,-0.34
2022-12-09T07:33:50.039Z,-0.33
2022-12-09T07:36:21.206Z,-0.33
2022-12-09T07:38:50.340Z,-0.34
2022-12-09T07:41:20.324Z,-0.31
2022-12-09T07:43:48.973Z,-0.33
2022-12-09T07:46:19.453Z,-0.31
2022-12-09T07:48:49.182Z,-0.25
2022-12-09T07:51:17.933Z,-0.27
2022-12-09T07:53:46.922Z,-0.24
2022-12-09T07:56:16.953Z,-0.21
2022-12-09T07:58:48.644Z,-0.21
2022-12-09T08:01:19.061Z,-0.20
2022-12-09T08:03:48.461Z,-0.20
2022-12-09T08:06:19.216Z,-0.25
2022-12-09T08:08:48.459Z,-0.30
2022-12-09T08:11:18.828Z,-0.31
2022-12-09T08:13:49.053Z,-0.30
2022-12-09T08:16:19.832Z,-0.28
2022-12-09T08:18:49.604Z,-0.31
2022-12-09T08:21:19.840Z,-0.34
2022-12-09T08:23:48.727Z,-0.33
2022-12-09T08:26:19.211Z,-0.34
2022-12-09T08:28:49.484Z,-0.35
2022-12-09T08:31:21.127Z,-0.35
2022-12-09T08:33:49.833Z,-0.38
2022-12-09T08:36:20.563Z,-0.41
2022-12-09T08:38:49.459Z,-0.42
2022-12-09T08:41:19.433Z,-0.50
2022-12-09T08:43:49.257Z,-0.55
2022-12-09T08:46:17.895Z,-0.61
2022-12-09T08:48:47.396Z,-0.64
2022-12-09T08:51:16.443Z,-0.66
2022-12-09T08:53:45.652Z,-0.65
2022-12-09T08:56:19.553Z,-0.61
2022-12-09T08:58:49.458Z,-0.60
2022-12-09T09:01:19.640Z,-0.57
2022-12-09T09:03:49.299Z,-0.58
2022-12-09T09:06:22.221Z,-0.71
2022-12-09T09:08:50.981Z,-0.65
2022-12-09T09:11:20.781Z,-0.62
2022-12-09T09:13:52.415Z,-0.60
2022-12-09T09:16:22.857Z,-0.55
2022-12-09T09:18:51.795Z,-0.54
2022-12-09T09:21:28.473Z,-0.52
2022-12-09T09:23:57.128Z,-0.51
2022-12-09T09:26:28.177Z,-0.52
2022-12-09T09:28:58.614Z,-0.57
2022-12-09T09:31:26.804Z,-0.54
2022-12-09T09:33:56.367Z,-0.54
2022-12-09T09:36:25.887Z,-0.54
2022-12-09T09:38:55.307Z,-0.54
2022-12-09T09:41:29.332Z,-0.52
2022-12-09T09:43:59.060Z,-0.50
2022-12-09T09:46:36.047Z,-0.54
2022-12-09T09:49:05.779Z,-0.54
2022-12-09T09:51:35.090Z,-0.60
2022-12-09T09:54:08.466Z,-0.57
2022-12-09T09:56:41.146Z,-0.57
2022-12-09T09:59:16.436Z,-0.54
2022-12-09T10:01:47.856Z,-0.46
2022-12-09T10:04:21.869Z,-0.45
2022-12-09T10:06:53.399Z,-0.48
2022-12-09T10:09:24.858Z,-0.46
2022-12-09T10:11:59.992Z,-0.44
2022-12-09T10:14:42.876Z,-0.40
2022-12-09T10:17:19.417Z,-0.38
2022-12-09T10:19:49.717Z,-0.42
2022-12-09T10:22:21.227Z,-0.40
2022-12-09T10:24:51.762Z,-0.33
2022-12-09T10:27:29.133Z,-0.28
2022-12-09T10:30:00.194Z,-0.40
2022-12-09T10:32:33.558Z,-0.48
2022-12-09T10:35:03.367Z,-0.54
2022-12-09T10:37:35.227Z,-0.62
2022-12-09T10:40:24.884Z,-0.61
2022-12-09T10:43:13.050Z,-0.52
2022-12-09T10:46:16.639Z,-0.50
2022-12-09T10:48:38.780Z,-0.46
2022-12-09T10:51:14.172Z,-0.41
2022-12-09T10:53:48.564Z,-0.33
2022-12-09T10:56:22.104Z,-0.28
2022-12-09T10:58:50.257Z,-0.24
2022-12-09T11:01:20.224Z,-0.20
2022-12-09T11:03:50.901Z,-0.30
2022-12-09T11:06:26.091Z,-0.33
2022-12-09T11:08:56.878Z,-0.42
2022-12-09T11:11:46.374Z,-0.48
2022-12-09T11:14:23.082Z,-0.54
2022-12-09T11:16:54.495Z,-0.51
2022-12-09T11:19:33.462Z,-0.50
2022-12-09T11:22:38.291Z,-0.48
2022-12-09T11:25:25.076Z,-0.45
2022-12-09T11:27:55.399Z,-0.44
2022-12-09T11:30:27.125Z,-0.40
2022-12-09T11:33:02.398Z,-0.33
2022-12-09T11:35:34.121Z,-0.34
2022-12-09T11:38:05.464Z,-0.37
2022-12-09T11:40:34.590Z,-0.44
2022-12-09T11:43:03.480Z,-0.42
2022-12-09T11:45:35.219Z,-0.31
2022-12-09T11:48:27.512Z,-0.30
2022-12-09T11:50:56.294Z,-0.27
2022-12-09T11:53:29.585Z,-0.23
2022-12-09T11:56:01.171Z,-0.41
2022-12-09T11:58:32.057Z,-0.52
2022-12-09T12:01:04.457Z,-0.58
2022-12-09T12:03:38.879Z,-0.58
2022-12-09T12:06:10.647Z,-0.62
2022-12-09T12:08:45.200Z,-0.54
2022-12-09T12:11:15.683Z,-0.50
2022-12-09T12:13:46.349Z,-0.44
2022-12-09T12:16:19.323Z,-0.41
2022-12-09T12:18:52.420Z,-0.45
2022-12-09T12:21:25.284Z,-0.45
2022-12-09T12:24:32.617Z,-0.46
2022-12-09T12:27:10.060Z,-0.44
2022-12-09T12:29:47.539Z,-0.41
2022-12-09T12:32:26.737Z,-0.42
2022-12-09T12:35:15.072Z,-0.45
2022-12-09T12:37:54.138Z,-0.46
2022-12-09T12:40:29.088Z,-0.48
2022-12-09T12:43:21.227Z,-0.40
2022-12-09T12:46:11.273Z,-0.35
2022-12-09T12:48:49.225Z,-0.40
2022-12-09T12:51:26.281Z,-0.45
2022-12-09T12:53:58.671Z,-0.44
2022-12-09T12:56:30.716Z,-0.44
2022-12-09T12:59:05.435Z,-0.54
2022-12-09T13:01:35.925Z,-0.57
2022-12-09T13:04:14.454Z,-0.52
2022-12-09T13:06:48.259Z,-0.52
2022-12-09T13:09:20.079Z,-0.55
2022-12-09T13:11:58.678Z,-0.57
2022-12-09T13:14:32.023Z,-0.66
2022-12-09T13:17:02.187Z,-0.66
2022-12-09T13:19:35.592Z,-0.62
2022-12-09T13:22:05.595Z,-0.54
2022-12-09T13:24:42.215Z,-0.50
2022-12-09T13:27:15.495Z,-0.48
2022-12-09T13:29:46.576Z,-0.58
2022-12-09T13:32:27.188Z,-0.66
2022-12-09T13:35:00.504Z,-0.64
2022-12-09T13:37:57.699Z,-0.64
2022-12-09T13:40:31.779Z,-0.55
2022-12-09T13:43:13.351Z,-0.54
2022-12-09T13:45:50.930Z,-0.52
2022-12-09T13:48:52.088Z,-0.54
2022-12-09T13:51:21.003Z,-0.52
2022-12-09T13:53:54.322Z,-0.61
2022-12-09T13:56:28.275Z,-0.60
2022-12-09T13:59:17.823Z,-0.61
2022-12-09T14:01:49.278Z,-0.60
2022-12-09T14:04:22.451Z,-0.64
2022-12-09T14:06:56.012Z,-0.66
2022-12-09T14:09:39.728Z,-0.71
2022-12-09T14:12:10.107Z,-0.72
2022-12-09T14:14:56.488Z,-0.73
2022-12-09T14:17:58.989Z,-0.69
2022-12-09T14:20:32.484Z,-0.69
2022-12-09T14:23:24.623Z,-0.71
2022-12-09T14:26:02.796Z,-0.68
2022-12-09T14:28:55.309Z,-0.76
2022-12-09T14:31:52.252Z,-0.81
2022-12-09T14:34:29.549Z,-0.79
2022-12-09T14:37:06.623Z,-0.81
2022-12-09T14:39:42.252Z,-0.82
2022-12-09T14:42:19.697Z,-0.81
2022-12-09T14:44:52.239Z,-0.79
2022-12-09T14:47:24.048Z,-0.76
2022-12-09T14:49:54.067Z,-0.75
2022-12-09T14:52:24.862Z,-0.75
2022-12-09T14:54:54.143Z,-0.72
2022-12-09T14:57:26.193Z,-0.75
2022-12-09T14:59:55.011Z,-0.75
2022-12-09T15:02:26.393Z,-0.82
2022-12-09T15:04:55.573Z,-0.92
2022-12-09T15:07:25.947Z,-0.96
2022-12-09T15:09:56.272Z,-1.00
2022-12-09T15:12:31.288Z,-1.00
2022-12-09T15:15:01.359Z,-0.95
2022-12-09T15:17:32.440Z,-0.89
2022-12-09T15:20:01.399Z,-0.86
2022-12-09T15:22:31.665Z,-0.93
2022-12-09T15:25:02.258Z,-0.99
2022-12-09T15:27:31.825Z,-0.97
2022-12-09T15:29:59.782Z,-0.97
2022-12-09T15:32:29.490Z,-0.99
2022-12-09T15:35:16.590Z,-1.04
2022-12-09T15:37:45.801Z,-1.16
2022-12-09T15:40:16.414Z,-1.19
2022-12-09T15:42:48.835Z,-1.24
2022-12-09T15:45:18.223Z,-1.23
2022-12-09T15:47:49.009Z,-1.23
2022-12-09T15:50:21.462Z,-1.26
2022-12-09T15:52:51.366Z,-1.29
2022-12-09T15:55:21.550Z,-1.27
2022-12-09T15:57:53.729Z,-1.23
2022-12-09T16:00:21.980Z,-1.17
2022-12-09T16:02:50.479Z,-1.14
2022-12-09T16:05:23.758Z,-1.14
2022-12-09T16:07:56.888Z,-1.21
2022-12-09T16:10:27.013Z,-1.21
2022-12-09T16:13:11.185Z,-1.20
2022-12-09T16:15:50.051Z,-1.19
2022-12-09T16:18:22.542Z,-1.19
2022-12-09T16:20:59.045Z,-1.20
2022-12-09T16:23:27.839Z,-1.24
2022-12-09T16:26:06.320Z,-1.27
2022-12-09T16:28:36.239Z,-1.36
2022-12-09T16:31:05.770Z,-1.41
2022-12-09T16:33:39.319Z,-1.48
2022-12-09T16:36:10.104Z,-1.46
2022-12-09T16:38:38.363Z,-1.46
2022-12-09T16:41:09.491Z,-1.46
2022-12-09T16:43:53.935Z,-1.46
2022-12-09T16:46:36.231Z,-1.41
2022-12-09T16:49:05.280Z,-1.46
2022-12-09T16:51:33.588Z,-1.51
2022-12-09T16:54:02.131Z,-1.51
2022-12-09T16:56:31.835Z,-1.52
2022-12-09T16:59:01.258Z,-1.54
2022-12-09T17:01:33.849Z,-1.58
2022-12-09T17:04:05.055Z,-1.60
2022-12-09T17:06:33.196Z,-1.60
2022-12-09T17:09:01.201Z,-1.57
2022-12-09T17:11:29.210Z,-1.57
2022-12-09T17:13:57.295Z,-1.55
2022-12-09T17:16:26.965Z,-1.54
2022-12-09T17:18:55.092Z,-1.54
2022-12-09T17:21:23.399Z,-1.58
2022-12-09T17:23:51.342Z,-1.58
2022-12-09T17:26:20.974Z,-1.51
2022-12-09T17:28:49.866Z,-1.54
2022-12-09T17:31:19.522Z,-1.55
2022-12-09T17:33:49.007Z,-1.57
2022-12-09T17:36:19.799Z,-1.58
2022-12-09T17:38:47.914Z,-1.60
2022-12-09T17:41:19.349Z,-1.60
2022-12-09T17:43:47.562Z,-1.60
2022-12-09T17:46:16.032Z,-1.58
2022-12-09T17:48:44.055Z,-1.57
2022-12-09T17:51:17.754Z,-1.62
2022-12-09T17:53:46.574Z,-1.62
2022-12-09T17:56:16.769Z,-1.65
2022-12-09T17:58:45.034Z,-1.61
2022-12-09T18:01:15.131Z,-1.62
2022-12-09T18:04:04.418Z,-1.64
2022-12-09T18:06:34.386Z,-1.65
2022-12-09T18:09:03.920Z,-1.64
2022-12-09T18:11:32.013Z,-1.68
2022-12-09T18:14:01.420Z,-1.65
2022-12-09T18:16:30.652Z,-1.64
2022-12-09T18:19:02.491Z,-1.62
2022-12-09T18:21:31.848Z,-1.64
2022-12-09T18:23:59.858Z,-1.61
2022-12-09T18:26:31.366Z,-1.61
2022-12-09T18:29:02.391Z,-1.58
2022-12-09T18:31:30.763Z,-1.58
2022-12-09T18:33:58.773Z,-1.57
2022-12-09T18:36:29.128Z,-1.57
2022-12-09T18:38:59.395Z,-1.55
2022-12-09T18:41:29.579Z,-1.51
2022-12-09T18:43:59.864Z,-1.55
2022-12-09T18:46:29.644Z,-1.55
2022-12-09T18:48:58.501Z,-1.54
2022-12-09T18:51:26.991Z,-1.52
2022-12-09T18:53:55.459Z,-1.54
2022-12-09T18:56:24.878Z,-1.48
2022-12-09T18:59:09.196Z,-1.48
2022-12-09T19:01:40.383Z,-1.47
2022-12-09T19:04:13.326Z,-1.43
2022-12-09T19:06:43.499Z,-1.40
2022-12-09T19:09:13.844Z,-1.37
2022-12-09T19:11:44.143Z,-1.37
2022-12-09T19:14:12.293Z,-1.36
2022-12-09T19:16:40.795Z,-1.33
2022-12-09T19:19:10.586Z,-1.34
2022-12-09T19:21:39.311Z,-1.37
2022-12-09T19:24:12.947Z,-1.39
2022-12-09T19:26:42.660Z,-1.37
2022-12-09T19:29:13.174Z,-1.36
2022-12-09T19:31:43.130Z,-1.36
2022-12-09T19:34:14.074Z,-1.37
2022-12-09T19:36:42.513Z,-1.37
2022-12-09T19:39:11.301Z,-1.36
2022-12-09T19:41:40.780Z,-1.40
2022-12-09T19:44:09.082Z,-1.37
2022-12-09T19:46:38.817Z,-1.41
2022-12-09T19:49:07.012Z,-1.43
2022-12-09T19:51:35.021Z,-1.44
2022-12-09T19:54:03.190Z,-1.43
2022-12-09T19:56:31.230Z,-1.44
2022-12-09T19:59:00.254Z,-1.48
2022-12-09T20:01:31.772Z,-1.47
2022-12-09T20:04:18.993Z,-1.48
2022-12-09T20:06:51.594Z,-1.50
2022-12-09T20:09:24.407Z,-1.50
2022-12-09T20:11:52.944Z,-1.50
2022-12-09T20:14:21.461Z,-1.46
2022-12-09T20:16:49.580Z,-1.46
2022-12-09T20:19:19.733Z,-1.47
2022-12-09T20:21:47.763Z,-1.50
2022-12-09T20:24:15.844Z,-1.54
2022-12-09T20:26:44.302Z,-1.57
2022-12-09T20:29:12.974Z,-1.60
2022-12-09T20:31:42.332Z,-1.62
2022-12-09T20:34:16.047Z,-1.64
2022-12-09T20:36:46.708Z,-1.62
2022-12-09T20:39:17.423Z,-1.65
2022-12-09T20:41:45.998Z,-1.67
2022-12-09T20:44:15.269Z,-1.62
2022-12-09T20:46:46.685Z,-1.64
2022-12-09T20:49:14.670Z,-1.67
2022-12-09T20:51:45.100Z,-1.68
2022-12-09T20:54:15.780Z,-1.71
2022-12-09T20:56:43.881Z,-1.71
2022-12-09T20:59:13.636Z,-1.71
2022-12-09T21:01:43.549Z,-1.72
2022-12-09T21:04:11.796Z,-1.68
2022-12-09T21:06:41.673Z,-1.68
2022-12-09T21:09:11.458Z,-1.68
2022-12-09T21:11:40.905Z,-1.67
2022-12-09T21:14:10.910Z,-1.71
2022-12-09T21:16:40.607Z,-1.70
2022-12-09T21:19:11.861Z,-1.68
2022-12-09T21:21:41.450Z,-1.65
2022-12-09T21:24:10.803Z,-1.67
2022-12-09T21:26:39.422Z,-1.65
2022-12-09T21:29:09.397Z,-1.61
2022-12-09T21:31:38.729Z,-1.60
2022-12-09T21:34:08.112Z,-1.61
2022-12-09T21:36:37.410Z,-1.55
2022-12-09T21:39:06.375Z,-1.58
2022-12-09T21:41:36.372Z,-1.55
2022-12-09T21:44:05.289Z,-1.57
2022-12-09T21:46:36.377Z,-1.57
2022-12-09T21:49:06.451Z,-1.57
2022-12-09T21:51:36.258Z,-1.54
2022-12-09T21:54:04.886Z,-1.55
2022-12-09T21:56:35.763Z,-1.52
2022-12-09T21:59:05.876Z,-1.52
2022-12-09T22:01:37.098Z,-1.50
2022-12-09T22:04:06.747Z,-1.51
2022-12-09T22:06:35.542Z,-1.50
2022-12-09T22:09:04.708Z,-1.48
2022-12-09T22:11:35.240Z,-1.50
2022-12-09T22:14:04.102Z,-1.50
2022-12-09T22:16:35.668Z,-1.48
2022-12-09T22:19:06.098Z,-1.50
2022-12-09T22:21:34.705Z,-1.50
2022-12-09T22:24:05.037Z,-1.50
2022-12-09T22:26:33.681Z,-1.48
2022-12-09T22:29:03.440Z,-1.48
2022-12-09T22:31:32.958Z,-1.47
2022-12-09T22:34:04.622Z,-1.50
2022-12-09T22:36:33.014Z,-1.48
2022-12-09T22:39:01.355Z,-1.51
2022-12-09T22:41:30.428Z,-1.50
2022-12-09T22:43:58.784Z,-1.48
2022-12-09T22:46:28.540Z,-1.50
2022-12-09T22:48:56.931Z,-1.50
2022-12-09T22:51:27.981Z,-1.52
2022-12-09T22:53:57.258Z,-1.57
2022-12-09T22:56:26.258Z,-1.57
2022-12-09T22:58:54.738Z,-1.61
2022-12-09T23:01:24.325Z,-1.64
2022-12-09T23:03:52.461Z,-1.64
2022-12-09T23:06:20.532Z,-1.67
2022-12-09T23:08:50.125Z,-1.65
2022-12-09T23:11:20.221Z,-1.65
2022-12-09T23:13:49.311Z,-1.65
2022-12-09T23:16:19.703Z,-1.65
2022-12-09T23:18:48.311Z,-1.65
2022-12-09T23:21:17.746Z,-1.65
2022-12-09T23:23:46.193Z,-1.64
2022-12-09T23:26:17.881Z,-1.64
2022-12-09T23:28:47.895Z,-1.64
2022-12-09T23:31:17.510Z,-1.64
2022-12-09T23:33:47.030Z,-1.62
2022-12-09T23:36:16.863Z,-1.62
2022-12-09T23:38:45.657Z,-1.62
2022-12-09T23:41:17.269Z,-1.58
2022-12-09T23:43:46.854Z,-1.61
2022-12-09T23:46:17.055Z,-1.61
2022-12-09T23:48:45.961Z,-1.60
2022-12-09T23:51:16.053Z,-1.60
2022-12-09T23:53:44.964Z,-1.60
2022-12-09T23:56:16.091Z,-1.61
2022-12-09T23:58:44.299Z,-1.64
